Time;durP1;ratioP1;P1;durP2;ratioP2;P2;SDS_P1;SDS_P2;PMS_P1;PMS_P2;Temp;Humidity;BMP_temperature;BMP_pressure;BME280_temperature;BME280_humidity;BME280_pressure;Samples;Min_cycle;Max_cycle;Signal;HPM_P1;HPM_P2
2021/12/16 00:02:32;;;;;;;17.10;9.48;;;9.30;99.90;;;;;;5070892;28;20066;-76
2021/12/16 00:08:03;;;;;;;12.20;9.90;;;9.20;99.90;;;;;;5069666;28;20086;-76
2021/12/16 00:10:37;;;;;;;11.75;10.48;;;9.20;99.90;;;;;;5070418;28;20069;-75
2021/12/16 00:30:01;;;;;;;13.10;9.27;;;9.10;99.90;;;;;;5070625;28;20387;-78
2021/12/16 00:32:48;;;;;;;;;;;9.10;99.90;;;;;;5069548;28;20055;-77
2021/12/16 00:35:16;;;;;;;14.80;9.23;;;9.20;99.90;;;;;;5070242;28;19912;-77
2021/12/16 00:37:42;;;;;;;17.05;10.38;;;9.20;99.90;;;;;;5068719;28;20032;-80
2021/12/16 00:40:12;;;;;;;14.77;9.80;;;9.20;99.90;;;;;;5068814;28;20379;-76
2021/12/16 00:42:49;;;;;;;12.50;11.20;;;9.20;99.90;;;;;;5070152;28;20082;-76
2021/12/16 00:48:25;;;;;;;13.68;10.48;;;9.20;99.90;;;;;;5070010;28;20494;-77
2021/12/16 00:56:04;;;;;;;15.43;12.20;;;9.10;99.90;;;;;;5069833;28;20036;-75
2021/12/16 00:58:39;;;;;;;16.40;12.55;;;9.10;99.90;;;;;;5069417;28;20711;-79
2021/12/16 01:01:36;;;;;;;19.42;11.48;;;9.10;99.90;;;;;;5069568;28;20048;-75
2021/12/16 01:34:56;;;;;;;21.73;14.20;;;8.80;99.90;;;;;;5069801;28;20672;-79
2021/12/16 01:51:33;;;;;;;23.85;15.50;;;8.70;99.90;;;;;;5067207;28;20120;-77
2021/12/16 01:54:39;;;;;;;25.48;16.20;;;8.70;99.90;;;;;;5068936;28;20032;-78
2021/12/16 01:57:07;;;;;;;21.63;15.32;;;8.70;99.90;;;;;;5067639;28;20055;-78
2021/12/16 01:59:36;;;;;;;23.25;15.80;;;8.70;99.90;;;;;;5068578;28;20035;-79
2021/12/16 02:05:27;;;;;;;26.75;16.13;;;8.70;99.90;;;;;;5068668;28;20039;-75
2021/12/16 02:10:32;;;;;;;25.35;16.75;;;8.70;99.90;;;;;;5068264;28;20391;-78
2021/12/16 02:32:01;;;;;;;25.98;16.10;;;8.60;99.90;;;;;;5067187;28;20471;-75
2021/12/16 02:34:45;;;;;;;31.83;17.08;;;8.60;99.90;;;;;;5068004;28;20032;-76
2021/12/16 02:37:17;;;;;;;29.77;16.25;;;8.60;99.90;;;;;;5067902;28;20112;-78
2021/12/16 02:39:44;;;;;;;24.45;15.85;;;8.70;99.90;;;;;;5067984;28;20032;-75
2021/12/16 02:42:18;;;;;;;22.10;14.65;;;8.60;99.90;;;;;;5067904;28;20047;-78
2021/12/16 02:50:02;;;;;;;24.02;14.48;;;8.60;99.90;;;;;;5068122;28;20105;-77
2021/12/16 02:52:29;;;;;;;28.23;15.10;;;8.50;99.90;;;;;;5067923;28;20099;-78
2021/12/16 02:54:56;;;;;;;25.17;15.52;;;8.50;99.90;;;;;;5067790;28;20024;-78
2021/12/16 02:57:21;;;;;;;;;;;8.50;99.90;;;;;;5067987;28;20076;-76
2021/12/16 02:59:49;;;;;;;21.83;15.20;;;8.60;99.90;;;;;;5067690;28;20194;-76
2021/12/16 03:02:17;;;;;;;20.08;14.93;;;8.60;99.90;;;;;;5066582;28;20089;-79
2021/12/16 03:04:46;;;;;;;23.50;15.05;;;8.50;99.90;;;;;;5067839;28;20013;-76
2021/12/16 03:07:14;;;;;;;33.28;15.95;;;8.50;99.90;;;;;;5067650;28;20085;-75
2021/12/16 03:14:51;;;;;;;;;;;8.50;99.90;;;;;;5068331;28;20577;-76
2021/12/16 03:17:34;;;;;;;20.98;13.95;;;8.50;99.90;;;;;;5066155;28;19917;-76
2021/12/16 03:20:08;;;;;;;26.88;15.35;;;8.50;99.90;;;;;;5067561;28;20029;-76
2021/12/16 03:25:40;;;;;;;25.63;14.40;;;8.50;99.90;;;;;;5067591;28;20074;-77
2021/12/16 03:38:18;;;;;;;20.95;13.63;;;8.70;99.90;;;;;;5067533;28;20032;-79
2021/12/16 03:40:44;;;;;;;21.13;13.65;;;8.70;99.90;;;;;;5067236;28;20021;-77
2021/12/16 03:43:17;;;;;;;17.65;13.43;;;8.70;99.90;;;;;;5067164;28;20028;-77
2021/12/16 03:48:37;;;;;;;28.88;14.32;;;8.70;99.90;;;;;;5067504;28;20035;-77
2021/12/16 03:51:23;;;;;;;14.68;13.10;;;8.70;99.90;;;;;;5067200;28;20023;-78
2021/12/16 03:53:52;;;;;;;21.10;13.88;;;8.70;99.90;;;;;;5065951;28;20029;-77
2021/12/16 03:56:18;;;;;;;26.42;13.90;;;8.60;99.90;;;;;;5065696;28;20147;-77
2021/12/16 03:58:45;;;;;;;19.98;14.25;;;8.60;99.90;;;;;;5049126;28;20453;-78
2021/12/16 04:01:13;;;;;;;;;;;8.60;99.90;;;;;;5067473;28;20024;-79
2021/12/16 04:03:40;;;;;;;19.10;13.05;;;8.60;99.90;;;;;;5067066;28;19917;-77
2021/12/16 04:06:07;;;;;;;24.83;14.27;;;8.60;99.90;;;;;;5065719;28;20056;-75
2021/12/16 04:08:33;;;;;;;17.38;14.10;;;8.60;99.90;;;;;;5067105;28;20021;-78
2021/12/16 04:11:12;;;;;;;19.05;12.98;;;8.70;99.90;;;;;;5067129;28;20040;-76
2021/12/16 04:13:53;;;;;;;17.98;13.73;;;8.70;99.90;;;;;;5066958;28;20483;-78
2021/12/16 04:16:24;;;;;;;21.73;14.07;;;8.80;99.90;;;;;;5066964;28;20039;-77
2021/12/16 04:18:50;;;;;;;17.35;13.85;;;8.80;99.90;;;;;;5066882;28;20040;-77
2021/12/16 04:21:19;;;;;;;19.20;13.32;;;8.80;99.90;;;;;;5067359;28;20025;-76
2021/12/16 04:23:45;;;;;;;17.63;13.43;;;8.80;99.90;;;;;;5070477;28;20149;-77
2021/12/16 04:26:11;;;;;;;21.55;13.95;;;8.80;99.90;;;;;;5068994;28;20382;-78
2021/12/16 04:28:37;;;;;;;19.60;13.15;;;8.80;99.90;;;;;;5070542;28;20035;-77
2021/12/16 04:31:02;;;;;;;14.32;12.40;;;8.80;99.90;;;;;;5070271;28;20063;-77
2021/12/16 04:33:28;;;;;;;17.48;13.15;;;8.90;99.90;;;;;;5069059;28;20028;-78
2021/12/16 04:35:54;;;;;;;14.70;13.23;;;8.90;99.90;;;;;;5068898;28;20051;-78
2021/12/16 04:38:20;;;;;;;18.17;14.85;;;8.90;99.90;;;;;;5069018;28;20078;-76
2021/12/16 04:40:48;;;;;;;17.92;14.02;;;8.90;99.90;;;;;;5068866;28;20028;-77
2021/12/16 04:43:20;;;;;;;19.63;13.60;;;8.90;99.90;;;;;;5068902;28;20029;-79
2021/12/16 04:45:47;;;;;;;20.95;14.60;;;9.00;99.90;;;;;;5070142;28;20066;-77
2021/12/16 04:48:12;;;;;;;18.92;14.55;;;9.00;99.90;;;;;;5068543;28;20028;-76
2021/12/16 04:50:38;;;;;;;15.38;13.88;;;9.10;99.90;;;;;;5069691;28;20070;-76
2021/12/16 04:53:04;;;;;;;17.88;13.38;;;9.20;99.90;;;;;;5069735;28;20044;-78
2021/12/16 04:55:30;;;;;;;17.23;14.25;;;9.20;99.90;;;;;;5069650;28;20530;-75
2021/12/16 04:57:56;;;;;;;17.48;14.68;;;9.30;99.90;;;;;;5069371;28;20059;-77
2021/12/16 05:00:24;;;;;;;17.05;14.15;;;9.40;99.90;;;;;;5069498;28;20028;-78
2021/12/16 05:02:51;;;;;;;17.13;14.40;;;9.40;99.90;;;;;;5070017;28;20120;-75
2021/12/16 05:05:17;;;;;;;17.85;14.23;;;9.50;99.90;;;;;;5068252;28;20024;-77
2021/12/16 05:07:44;;;;;;;20.58;14.93;;;9.50;99.90;;;;;;5069675;28;20028;-76
2021/12/16 05:10:13;;;;;;;19.10;14.77;;;9.60;99.90;;;;;;5051864;28;20128;-77
2021/12/16 05:12:51;;;;;;;19.83;14.57;;;9.60;99.90;;;;;;5069575;28;20048;-78
2021/12/16 05:15:21;;;;;;;22.15;15.25;;;9.70;99.90;;;;;;5069483;28;20024;-78
2021/12/16 05:17:51;;;;;;;27.02;15.60;;;9.80;99.90;;;;;;5069333;28;20013;-76
2021/12/16 05:20:30;;;;;;;19.88;15.55;;;9.80;99.90;;;;;;5069210;28;20024;-76
2021/12/16 05:28:13;;;;;;;18.15;16.20;;;9.70;99.90;;;;;;5069430;28;20120;-79
2021/12/16 05:30:39;;;;;;;19.17;16.17;;;9.60;99.90;;;;;;5067990;28;20025;-76
2021/12/16 05:33:05;;;;;;;23.02;16.08;;;9.60;99.90;;;;;;5069008;28;20040;-77
2021/12/16 05:35:31;;;;;;;18.55;16.38;;;9.60;99.90;;;;;;5067879;28;20038;-79
2021/12/16 05:37:57;;;;;;;22.33;16.55;;;9.60;99.90;;;;;;5068844;28;20051;-77
2021/12/16 05:40:26;;;;;;;21.10;16.45;;;9.70;99.90;;;;;;5068874;28;20115;-78
2021/12/16 05:42:55;;;;;;;22.63;15.90;;;9.70;99.90;;;;;;5067485;28;20021;-77
2021/12/16 05:45:23;;;;;;;18.63;15.10;;;9.80;99.90;;;;;;5068668;28;20070;-76
2021/12/16 05:47:49;;;;;;;21.98;15.30;;;9.90;99.90;;;;;;5068735;28;20017;-77
2021/12/16 05:50:15;;;;;;;21.35;15.00;;;9.90;99.90;;;;;;5067335;28;20033;-71
2021/12/16 05:52:41;;;;;;;22.92;16.65;;;9.90;99.90;;;;;;5068583;28;20036;-79
2021/12/16 05:55:08;;;;;;;23.45;16.88;;;10.00;99.90;;;;;;5068706;28;20115;-77
2021/12/16 05:57:34;;;;;;;19.85;15.23;;;10.00;99.90;;;;;;5068419;28;20435;-78
2021/12/16 06:00:00;;;;;;;21.75;15.45;;;10.00;99.90;;;;;;5068598;28;20025;-77
2021/12/16 06:02:26;;;;;;;19.00;14.95;;;10.10;99.90;;;;;;5067195;28;20036;-77
2021/12/16 06:04:52;;;;;;;20.10;14.60;;;10.10;99.90;;;;;;5068516;28;20411;-77
2021/12/16 06:07:18;;;;;;;20.15;14.45;;;10.20;99.90;;;;;;5068439;28;20036;-78
2021/12/16 06:09:45;;;;;;;24.63;15.02;;;10.20;99.90;;;;;;5068220;28;20496;-77
2021/12/16 06:12:11;;;;;;;19.17;13.95;;;10.20;99.90;;;;;;5068134;28;20035;-77
2021/12/16 06:15:35;;;;;;;;;;;10.30;99.90;;;;;;5067547;28;20032;-75
2021/12/16 06:28:07;;;;;;;15.63;13.90;;;10.40;99.90;;;;;;5067990;28;20036;-77
2021/12/16 06:30:40;;;;;;;18.42;14.30;;;10.40;99.90;;;;;;5067757;28;20125;-78
2021/12/16 06:33:09;;;;;;;23.63;13.70;;;10.40;99.90;;;;;;5067853;28;20222;-77
2021/12/16 06:35:35;;;;;;;21.55;14.65;;;10.50;99.90;;;;;;5066817;28;20490;-79
2021/12/16 06:38:02;;;;;;;21.50;14.18;;;10.50;99.90;;;;;;5067851;28;20040;-77
2021/12/16 06:40:27;;;;;;;17.75;13.68;;;10.50;99.90;;;;;;5067757;28;20511;-78
2021/12/16 06:42:56;;;;;;;20.27;14.18;;;10.50;99.90;;;;;;5067383;28;20045;-75
2021/12/16 06:45:27;;;;;;;17.13;13.02;;;10.50;99.90;;;;;;5067550;28;20472;-75
2021/12/16 06:48:11;;;;;;;18.10;13.48;;;10.50;99.90;;;;;;5067777;28;20429;-76
2021/12/16 06:53:06;;;;;;;19.35;13.05;;;10.60;99.90;;;;;;5067827;28;20392;-77
2021/12/16 06:55:40;;;;;;;13.32;11.90;;;10.60;99.90;;;;;;5066217;28;20032;-77
2021/12/16 06:59:01;;;;;;;17.35;11.88;;;10.60;99.90;;;;;;5067755;28;20052;-76
2021/12/16 07:01:20;;;;;;;17.42;12.18;;;10.60;99.90;;;;;;5066776;28;20040;-76
2021/12/16 07:03:47;;;;;;;19.48;13.15;;;10.70;99.90;;;;;;5066349;28;20109;-76
2021/12/16 07:06:29;;;;;;;16.63;12.10;;;10.70;99.90;;;;;;5067391;28;20405;-76
2021/12/16 07:09:00;;;;;;;22.65;12.82;;;10.70;99.90;;;;;;5067827;28;20029;-76
2021/12/16 07:11:26;;;;;;;18.23;12.32;;;10.70;99.90;;;;;;5067576;28;20025;-77
2021/12/16 07:14:01;;;;;;;;;;;10.80;99.90;;;;;;5068090;28;20020;-78
2021/12/16 07:16:29;;;;;;;20.27;12.30;;;10.80;99.90;;;;;;5065707;28;19919;-77
2021/12/16 07:18:57;;;;;;;21.20;11.93;;;10.80;99.90;;;;;;5066978;28;20029;-76
2021/12/16 07:21:23;;;;;;;18.15;12.80;;;10.80;99.90;;;;;;5067306;28;20025;-77
2021/12/16 07:23:50;;;;;;;15.98;12.27;;;10.80;99.90;;;;;;5082890;28;20032;-75
2021/12/16 07:26:16;;;;;;;22.23;12.85;;;10.80;99.90;;;;;;5067240;28;20043;-77
2021/12/16 07:28:42;;;;;;;17.95;12.48;;;10.80;99.90;;;;;;5067060;28;20033;-76
2021/12/16 07:31:08;;;;;;;19.85;12.57;;;10.80;99.90;;;;;;5065759;28;20029;-77
2021/12/16 07:33:33;;;;;;;;;;;10.80;99.90;;;;;;5066150;28;20119;-77
2021/12/16 07:36:00;;;;;;;16.30;11.27;;;10.80;99.90;;;;;;5099688;28;19995;-77
2021/12/16 07:38:26;;;;;;;15.93;12.48;;;10.80;99.90;;;;;;5067022;28;20025;-79
2021/12/16 07:40:53;;;;;;;;;;;10.80;99.90;;;;;;5067544;28;20056;-76
2021/12/16 07:43:53;;;;;;;18.33;10.77;;;10.80;99.90;;;;;;5065747;28;20244;-76
2021/12/16 07:46:05;;;;;;;17.13;11.60;;;10.90;99.90;;;;;;5066820;28;20060;-76
2021/12/16 07:48:31;;;;;;;16.98;10.95;;;10.80;99.90;;;;;;5067214;28;20024;-79
2021/12/16 07:50:59;;;;;;;19.25;11.02;;;10.80;99.90;;;;;;5065831;28;20065;-76
2021/12/16 07:53:25;;;;;;;17.08;10.25;;;10.80;99.90;;;;;;5066965;28;20396;-76
2021/12/16 07:55:51;;;;;;;15.07;10.75;;;10.90;99.90;;;;;;5067925;28;20024;-78
2021/12/16 07:58:19;;;;;;;15.68;10.68;;;10.90;99.90;;;;;;5068786;28;20052;-75
2021/12/16 08:00:46;;;;;;;14.80;10.15;;;10.90;99.90;;;;;;5070504;28;20024;-79
2021/12/16 08:03:13;;;;;;;14.13;10.00;;;10.90;99.90;;;;;;5070523;28;20025;-76
2021/12/16 08:05:47;;;;;;;17.83;9.45;;;11.00;99.90;;;;;;5103513;28;20031;-75
2021/12/16 08:08:13;;;;;;;14.70;10.48;;;11.00;99.90;;;;;;5069678;28;20037;-76
2021/12/16 08:10:39;;;;;;;18.30;10.15;;;11.00;99.90;;;;;;5069070;28;20036;-75
2021/12/16 08:13:05;;;;;;;11.68;9.82;;;11.00;99.90;;;;;;5070166;28;20036;-77
2021/12/16 08:15:31;;;;;;;16.05;8.80;;;11.00;99.90;;;;;;5068809;28;20394;-76
2021/12/16 08:17:58;;;;;;;19.45;10.40;;;11.00;99.90;;;;;;5069226;28;20231;-77
2021/12/16 08:20:24;;;;;;;11.00;8.18;;;11.00;99.90;;;;;;5068790;28;20487;-79
2021/12/16 08:22:51;;;;;;;14.02;9.05;;;11.00;99.90;;;;;;5070113;28;20032;-78
2021/12/16 08:25:20;;;;;;;12.85;9.10;;;11.00;99.90;;;;;;5069986;28;20025;-77
2021/12/16 08:27:46;;;;;;;12.63;8.88;;;11.00;99.90;;;;;;5068613;28;20042;-76
2021/12/16 08:30:15;;;;;;;13.70;9.23;;;11.10;99.90;;;;;;5069703;28;20033;-78
2021/12/16 08:32:41;;;;;;;13.18;8.68;;;11.10;99.90;;;;;;5070160;28;20052;-77
2021/12/16 08:35:08;;;;;;;;;;;11.10;99.90;;;;;;5070324;28;20032;-77
2021/12/16 08:37:34;;;;;;;14.43;9.47;;;11.10;99.90;;;;;;5102189;28;20265;-80
2021/12/16 08:40:00;;;;;;;14.00;8.70;;;11.10;99.90;;;;;;5069639;28;20102;-76
2021/12/16 08:42:26;;;;;;;14.93;8.85;;;11.10;99.90;;;;;;5069597;28;20033;-77
2021/12/16 08:44:52;;;;;;;13.35;9.50;;;11.10;99.90;;;;;;5069097;28;20031;-76
2021/12/16 08:47:19;;;;;;;11.40;8.40;;;11.10;99.90;;;;;;5069268;28;20036;-76
2021/12/16 08:49:47;;;;;;;10.80;8.60;;;11.10;99.90;;;;;;5069647;28;20407;-78
2021/12/16 08:52:17;;;;;;;12.82;7.72;;;11.10;99.90;;;;;;5067711;28;20090;-77
2021/12/16 08:54:43;;;;;;;15.73;8.65;;;11.10;99.90;;;;;;5069265;28;20025;-78
2021/12/16 08:57:10;;;;;;;16.77;8.63;;;11.20;99.90;;;;;;5067704;28;20491;-76
2021/12/16 08:59:36;;;;;;;13.13;7.05;;;11.20;99.90;;;;;;5068524;28;20065;-76
2021/12/16 09:02:04;;;;;;;12.65;7.30;;;11.20;99.90;;;;;;5067712;28;20120;-75
2021/12/16 09:04:30;;;;;;;20.70;7.70;;;11.20;99.90;;;;;;5067479;28;20398;-77
2021/12/16 09:07:00;;;;;;;12.73;7.03;;;11.20;99.90;;;;;;5068339;28;20028;-77
2021/12/16 09:09:31;;;;;;;10.80;6.63;;;11.30;99.90;;;;;;5068674;28;20434;-75
2021/12/16 09:12:13;;;;;;;11.82;6.75;;;11.30;99.90;;;;;;5067477;28;20093;-75
2021/12/16 09:14:41;;;;;;;9.98;6.55;;;11.30;99.90;;;;;;5053109;28;20028;-77
2021/12/16 09:17:10;;;;;;;14.57;7.10;;;11.40;99.90;;;;;;5066755;28;20090;-75
2021/12/16 09:19:42;;;;;;;8.45;6.07;;;11.30;99.90;;;;;;5065836;28;20025;-76
2021/12/16 09:22:09;;;;;;;11.30;6.63;;;11.40;99.90;;;;;;5068020;28;20017;-75
2021/12/16 09:24:35;;;;;;;12.75;7.10;;;11.40;99.90;;;;;;5068149;28;20008;-76
2021/12/16 09:27:01;;;;;;;10.38;6.53;;;11.40;99.90;;;;;;5068379;28;20024;-75
2021/12/16 09:29:27;;;;;;;21.48;7.68;;;11.40;99.90;;;;;;5067837;28;20037;-77
2021/12/16 09:31:53;;;;;;;16.25;6.45;;;11.40;99.90;;;;;;5067622;28;20531;-77
2021/12/16 09:34:19;;;;;;;;;;;11.40;99.90;;;;;;5050361;28;20171;-76
2021/12/16 09:36:45;;;;;;;11.15;6.45;;;11.50;99.90;;;;;;5068154;28;20371;-74
2021/12/16 09:39:16;;;;;;;16.98;6.93;;;11.50;99.90;;;;;;5067552;28;20020;-75
2021/12/16 09:41:47;;;;;;;9.55;5.32;;;11.50;99.90;;;;;;5066028;28;20033;-75
2021/12/16 09:44:13;;;;;;;10.07;5.72;;;11.50;99.90;;;;;;5066649;28;20037;-76
2021/12/16 09:46:40;;;;;;;13.10;5.72;;;11.50;99.90;;;;;;5068031;28;20396;-76
2021/12/16 09:49:06;;;;;;;9.52;5.55;;;11.60;99.90;;;;;;5067867;28;20021;-77
2021/12/16 09:51:35;;;;;;;;;;;11.60;99.90;;;;;;5068238;28;20036;-76
2021/12/16 09:54:07;;;;;;;9.10;5.35;;;11.60;99.90;;;;;;5067879;28;19908;-76
2021/12/16 09:56:35;;;;;;;13.15;6.28;;;11.60;99.90;;;;;;5067265;28;20062;-77
2021/12/16 09:59:03;;;;;;;12.82;6.03;;;11.60;99.90;;;;;;5067298;28;20021;-71
2021/12/16 10:01:29;;;;;;;10.27;6.47;;;11.70;99.90;;;;;;5066279;28;20021;-76
2021/12/16 10:04:02;;;;;;;15.15;6.20;;;11.70;99.90;;;;;;5067239;28;20109;-78
2021/12/16 10:06:29;;;;;;;14.57;5.88;;;11.70;99.90;;;;;;5067613;28;20027;-77
2021/12/16 10:08:54;;;;;;;12.20;5.25;;;11.70;99.90;;;;;;5067404;28;20020;-77
2021/12/16 10:11:21;;;;;;;15.13;6.20;;;11.70;99.90;;;;;;5067245;28;20051;-77
2021/12/16 10:14:00;;;;;;;;;;;11.70;99.90;;;;;;5067958;28;20104;-76
2021/12/16 10:19:13;;;;;;;11.88;5.45;;;11.80;99.90;;;;;;5066300;28;20043;-77
2021/12/16 10:21:41;;;;;;;11.55;5.15;;;11.80;99.90;;;;;;5065680;28;20028;-76
2021/12/16 10:24:25;;;;;;;16.08;6.78;;;11.80;99.90;;;;;;5066031;28;20024;-77
2021/12/16 10:27:09;;;;;;;10.63;5.47;;;11.80;99.90;;;;;;5066445;28;20020;-76
2021/12/16 10:29:44;;;;;;;12.13;5.50;;;11.80;99.90;;;;;;5061511;28;20360;-77
2021/12/16 10:32:31;;;;;;;12.50;5.80;;;11.90;99.90;;;;;;5067740;28;20020;-75
2021/12/16 10:34:59;;;;;;;14.55;4.55;;;11.90;99.90;;;;;;5067315;28;20509;-78
2021/12/16 10:37:34;;;;;;;11.68;5.20;;;11.90;99.90;;;;;;5066127;28;20032;-76
2021/12/16 10:40:43;;;;;;;10.73;4.93;;;11.90;99.90;;;;;;5063189;28;20021;-77
2021/12/16 10:43:15;;;;;;;7.78;4.38;;;12.00;99.90;;;;;;5057694;28;20772;-77
2021/12/16 10:45:46;;;;;;;10.02;4.63;;;12.00;99.90;;;;;;5065078;28;20370;-76
2021/12/16 10:48:21;;;;;;;8.43;4.45;;;12.00;99.90;;;;;;5068442;28;20032;-77
2021/12/16 10:50:51;;;;;;;9.82;4.40;;;12.10;99.90;;;;;;5050509;28;20021;-74
2021/12/16 10:53:55;;;;;;;12.50;4.60;;;12.10;99.90;;;;;;5067204;28;20028;-76
2021/12/16 10:56:29;;;;;;;8.63;4.18;;;12.10;99.90;;;;;;5068890;28;20054;-76
2021/12/16 10:59:04;;;;;;;8.82;4.18;;;12.20;99.90;;;;;;5068522;28;20032;-77
2021/12/16 11:01:35;;;;;;;10.13;4.05;;;12.20;99.90;;;;;;5068463;28;20481;-76
2021/12/16 11:04:15;;;;;;;12.32;4.90;;;12.30;99.90;;;;;;5063297;28;20025;-77
2021/12/16 11:07:04;;;;;;;10.75;4.00;;;12.30;99.90;;;;;;5063766;28;20031;-77
2021/12/16 11:10:04;;;;;;;10.25;4.35;;;12.40;99.90;;;;;;5061652;28;20032;-76
2021/12/16 11:12:38;;;;;;;8.77;4.07;;;12.40;99.90;;;;;;5055108;28;20032;-76
2021/12/16 11:15:12;;;;;;;8.75;3.25;;;12.50;99.90;;;;;;5066753;28;20059;-77
2021/12/16 11:17:42;;;;;;;9.32;4.20;;;12.50;99.90;;;;;;5067240;28;20498;-76
2021/12/16 11:20:36;;;;;;;9.48;4.70;;;12.60;99.90;;;;;;5068646;28;20024;-78
2021/12/16 11:23:07;;;;;;;7.97;3.65;;;12.60;99.90;;;;;;5055008;28;20451;-79
2021/12/16 11:25:55;;;;;;;9.57;3.20;;;12.60;99.90;;;;;;5068639;28;20028;-76
2021/12/16 11:28:23;;;;;;;9.65;4.43;;;12.60;99.90;;;;;;5068434;28;20021;-78
2021/12/16 11:31:01;;;;;;;7.93;3.83;;;12.70;99.90;;;;;;5070635;28;20033;-74
2021/12/16 11:33:44;;;;;;;8.88;3.58;;;12.70;99.90;;;;;;5072503;28;20024;-75
2021/12/16 11:36:16;;;;;;;9.38;4.15;;;12.80;99.90;;;;;;5071175;28;20452;-75
2021/12/16 11:39:03;;;;;;;11.98;3.70;;;12.80;99.90;;;;;;5071183;28;20024;-76
2021/12/16 11:41:42;;;;;;;8.10;3.00;;;12.80;99.90;;;;;;5072445;28;20576;-75
2021/12/16 11:44:17;;;;;;;9.85;3.78;;;12.80;99.90;;;;;;5072246;28;20016;-76
2021/12/16 11:46:46;;;;;;;10.20;3.80;;;12.90;99.90;;;;;;5072325;28;20375;-75
2021/12/16 11:49:31;;;;;;;8.93;3.15;;;12.90;99.90;;;;;;5071118;28;20467;-76
2021/12/16 11:52:07;;;;;;;8.82;3.28;;;12.90;99.90;;;;;;5072134;28;20459;-76
2021/12/16 11:54:40;;;;;;;6.88;3.58;;;12.90;99.90;;;;;;5070640;28;20024;-76
2021/12/16 11:57:20;;;;;;;7.13;2.85;;;13.00;99.90;;;;;;5066472;28;20482;-75
2021/12/16 11:59:52;;;;;;;6.97;3.20;;;13.00;99.90;;;;;;5071765;28;20078;-76
2021/12/16 12:02:32;;;;;;;8.27;3.47;;;13.00;99.90;;;;;;5069325;28;20017;-76
2021/12/16 12:05:19;;;;;;;11.75;4.35;;;13.10;99.90;;;;;;5070920;28;20463;-75
2021/12/16 12:07:57;;;;;;;17.75;5.50;;;13.10;99.80;;;;;;5069572;28;20036;-77
2021/12/16 12:10:39;;;;;;;9.23;3.88;;;13.10;99.80;;;;;;5066231;28;20028;-77
2021/12/16 12:13:07;;;;;;;11.55;3.47;;;13.20;99.70;;;;;;5071735;28;20035;-76
2021/12/16 12:15:50;;;;;;;10.75;3.67;;;13.20;99.60;;;;;;5071643;28;20807;-76
2021/12/16 12:18:29;;;;;;;10.18;3.42;;;13.20;99.50;;;;;;5063136;28;20040;-78
2021/12/16 12:21:13;;;;;;;6.53;2.90;;;13.20;99.40;;;;;;5071685;28;20027;-76
2021/12/16 12:23:39;;;;;;;11.60;3.00;;;13.30;99.40;;;;;;5067528;28;20162;-77
2021/12/16 12:26:05;;;;;;;9.10;3.38;;;13.30;99.30;;;;;;5070267;28;20025;-78
2021/12/16 12:28:30;;;;;;;8.00;2.45;;;13.30;99.10;;;;;;5050063;28;20071;-77
2021/12/16 12:30:56;;;;;;;5.10;2.10;;;13.30;99.20;;;;;;5070420;28;20033;-77
2021/12/16 12:33:22;;;;;;;5.78;2.00;;;13.30;98.80;;;;;;5070393;28;20497;-80
2021/12/16 12:35:47;;;;;;;4.10;2.05;;;13.30;98.60;;;;;;5070545;28;20478;-81
2021/12/16 12:38:13;;;;;;;10.15;2.78;;;13.30;98.40;;;;;;5071168;28;20040;-77
2021/12/16 12:40:40;;;;;;;6.10;2.35;;;13.20;98.30;;;;;;5070706;28;20031;-75
2021/12/16 12:43:09;;;;;;;10.18;2.45;;;13.10;98.30;;;;;;5071045;28;20106;-79
2021/12/16 12:45:41;;;;;;;6.70;2.25;;;13.20;98.10;;;;;;5070950;28;20074;-78
2021/12/16 12:48:12;;;;;;;6.43;1.98;;;13.10;97.90;;;;;;5069758;28;20371;-75
2021/12/16 12:50:41;;;;;;;6.55;2.28;;;13.10;97.80;;;;;;5070823;28;20025;-77
2021/12/16 12:53:16;;;;;;;8.88;2.60;;;13.10;97.60;;;;;;5068566;28;20494;-77
2021/12/16 12:55:43;;;;;;;6.68;2.38;;;13.00;97.40;;;;;;5071013;28;20648;-75
2021/12/16 12:58:12;;;;;;;7.25;2.20;;;13.00;97.40;;;;;;5070676;28;20394;-75
2021/12/16 13:00:57;;;;;;;6.05;2.47;;;13.00;97.40;;;;;;5069202;28;20020;-79
2021/12/16 13:03:31;;;;;;;8.70;3.30;;;13.00;97.30;;;;;;5071159;28;20070;-78
2021/12/16 13:06:03;;;;;;;7.70;2.10;;;13.00;97.30;;;;;;5069457;28;20363;-78
2021/12/16 13:08:35;;;;;;;5.25;1.75;;;12.90;97.10;;;;;;5069906;28;20032;-78
2021/12/16 13:11:11;;;;;;;5.80;1.90;;;12.90;96.90;;;;;;5070975;28;20028;-77
2021/12/16 13:13:56;;;;;;;4.88;2.15;;;12.80;96.70;;;;;;5070222;28;20103;-74
2021/12/16 13:17:20;;;;;;;6.32;1.85;;;12.80;96.70;;;;;;5069833;28;20534;-76
2021/12/16 13:28:19;;;;;;;11.18;4.05;;;12.70;96.40;;;;;;5070455;28;20059;-77
2021/12/16 13:31:03;;;;;;;6.35;2.58;;;12.70;96.50;;;;;;5070233;28;20361;-77
2021/12/16 13:33:44;;;;;;;6.97;2.20;;;12.70;96.40;;;;;;5068928;28;20031;-79
2021/12/16 13:36:28;;;;;;;9.57;2.63;;;12.70;96.30;;;;;;5068432;28;20096;-78
2021/12/16 13:38:57;;;;;;;6.95;2.50;;;12.70;96.40;;;;;;5066590;28;20036;-77
2021/12/16 13:41:27;;;;;;;9.82;3.00;;;12.70;96.30;;;;;;5069086;28;20022;-78
2021/12/16 13:44:01;;;;;;;5.30;2.28;;;12.70;96.10;;;;;;5068858;28;20025;-77
2021/12/16 13:46:38;;;;;;;6.95;2.17;;;12.70;96.00;;;;;;5070088;28;20103;-77
2021/12/16 14:03:53;;;;;;;5.03;2.22;;;12.40;95.70;;;;;;5070100;28;20035;-78
2021/12/16 14:06:55;;;;;;;6.32;2.33;;;12.40;95.80;;;;;;5068285;28;20379;-77
2021/12/16 14:09:29;;;;;;;5.53;2.20;;;12.40;95.80;;;;;;5069291;28;20024;-76
2021/12/16 14:14:48;;;;;;;6.03;2.05;;;12.30;95.80;;;;;;5057812;28;20067;-75
2021/12/16 14:17:41;;;;;;;6.47;2.38;;;12.30;95.80;;;;;;5068338;28;20035;-77
2021/12/16 14:23:24;;;;;;;7.38;2.80;;;12.20;95.80;;;;;;5061697;28;20039;-77
2021/12/16 14:46:48;;;;;;;10.10;3.38;;;12.00;95.60;;;;;;5067853;28;20246;-77
2021/12/16 14:49:14;;;;;;;7.90;3.47;;;12.10;95.60;;;;;;5059601;28;20052;-77
2021/12/16 14:51:40;;;;;;;8.50;3.40;;;12.10;95.60;;;;;;5068971;28;20398;-78
2021/12/16 14:54:08;;;;;;;;;;;12.10;95.50;;;;;;5069430;28;20108;-78
2021/12/16 14:56:37;;;;;;;7.55;3.38;;;12.10;95.60;;;;;;5068645;28;20003;-78
2021/12/16 14:59:07;;;;;;;7.25;2.80;;;12.10;95.60;;;;;;5067027;28;20024;-76
2021/12/16 15:01:39;;;;;;;6.93;2.88;;;12.10;95.60;;;;;;5069627;28;20017;-77
2021/12/16 15:04:08;;;;;;;15.82;5.20;;;12.10;95.60;;;;;;5067811;28;20036;-75
2021/12/16 15:06:45;;;;;;;12.80;4.80;;;12.10;95.60;;;;;;5067228;28;20551;-74
2021/12/16 15:12:18;;;;;;;8.88;3.65;;;12.00;95.70;;;;;;5068529;28;19908;-74
2021/12/16 15:45:30;;;;;;;10.05;3.30;;;11.90;95.70;;;;;;5046143;28;20068;-78
2021/12/16 15:48:00;;;;;;;9.45;3.53;;;11.90;95.70;;;;;;5045911;28;20040;-80
2021/12/16 15:50:38;;;;;;;9.63;3.88;;;11.80;95.60;;;;;;5035929;28;20083;-78
2021/12/16 15:53:32;;;;;;;12.23;5.13;;;11.80;95.60;;;;;;5047132;28;20029;-76
2021/12/16 15:56:09;;;;;;;8.00;4.15;;;11.80;95.60;;;;;;5047929;28;20075;-78
2021/12/16 15:59:06;;;;;;;9.38;4.47;;;11.80;95.50;;;;;;5048059;28;20083;-78
2021/12/16 16:01:39;;;;;;;5.50;2.40;;;11.70;95.60;;;;;;5047953;28;20021;-76
2021/12/16 16:04:29;;;;;;;8.52;3.38;;;11.70;95.60;;;;;;5066073;28;20110;-77
2021/12/16 16:06:58;;;;;;;8.93;3.10;;;11.70;95.50;;;;;;5066580;28;20017;-78
2021/12/16 16:09:27;;;;;;;8.02;3.40;;;11.60;95.50;;;;;;5067638;28;20375;-79
2021/12/16 16:11:54;;;;;;;7.07;3.08;;;11.60;95.50;;;;;;5067394;28;20124;-77
2021/12/16 16:14:23;;;;;;;7.22;3.15;;;11.60;95.60;;;;;;5067967;28;20031;-76
2021/12/16 16:16:56;;;;;;;10.25;4.10;;;11.70;95.60;;;;;;5069298;28;20103;-75
2021/12/16 16:19:24;;;;;;;11.25;4.35;;;11.70;95.60;;;;;;5070179;28;20021;-77
2021/12/16 16:21:53;;;;;;;7.55;3.60;;;11.70;95.60;;;;;;5072287;28;20048;-76
2021/12/16 16:24:32;;;;;;;13.55;6.00;;;11.70;95.60;;;;;;5070817;28;20514;-78
2021/12/16 16:27:01;;;;;;;16.58;6.40;;;11.70;95.60;;;;;;5071546;28;20021;-74
2021/12/16 16:29:29;;;;;;;7.93;3.70;;;11.70;95.50;;;;;;5072478;28;20478;-76
2021/12/16 16:31:55;;;;;;;11.48;4.90;;;11.70;95.50;;;;;;5069813;28;20166;-78
2021/12/16 16:34:25;;;;;;;8.80;4.40;;;11.70;95.50;;;;;;5070888;28;20012;-76
2021/12/16 16:36:55;;;;;;;12.77;6.38;;;11.70;95.50;;;;;;5071355;28;20121;-79
2021/12/16 16:39:27;;;;;;;11.07;5.18;;;11.70;95.50;;;;;;5069619;28;20035;-78
2021/12/16 16:41:56;;;;;;;7.65;3.78;;;11.70;95.50;;;;;;5071246;28;20099;-77
2021/12/16 16:44:24;;;;;;;20.27;8.75;;;11.70;95.50;;;;;;5071025;28;20036;-77
2021/12/16 16:47:06;;;;;;;11.27;4.25;;;11.70;95.50;;;;;;5070085;28;20066;-80
2021/12/16 16:49:49;;;;;;;7.82;3.60;;;11.60;95.40;;;;;;5066344;28;20127;-78
2021/12/16 16:52:36;;;;;;;9.35;4.70;;;11.70;95.40;;;;;;5072692;28;20107;-72
2021/12/16 16:55:13;;;;;;;;;;;11.60;95.40;;;;;;5067966;28;20029;-76
2021/12/16 16:57:52;;;;;;;12.57;5.97;;;11.60;95.50;;;;;;5071351;28;19916;-77